createdAt,value
2022-10-26T00:01:21.379Z,4.30
2022-10-26T00:03:55.769Z,4.82
2022-10-26T00:06:28.809Z,4.55
2022-10-26T00:09:03.208Z,5.03
2022-10-26T00:11:30.382Z,4.47
2022-10-26T00:14:04.331Z,3.90
2022-10-26T00:16:31.628Z,4.72
2022-10-26T00:18:58.768Z,4.60
2022-10-26T00:21:32.219Z,3.78
2022-10-26T00:24:19.129Z,4.68
2022-10-26T00:26:53.273Z,3.80
2022-10-26T00:29:20.457Z,4.97
2022-10-26T00:31:47.638Z,3.67
2022-10-26T00:34:21.275Z,4.38
2022-10-26T00:36:48.445Z,4.03
2022-10-26T00:39:22.340Z,3.90
2022-10-26T00:41:49.490Z,4.50
2022-10-26T00:44:42.522Z,3.78
2022-10-26T00:47:13.821Z,4.40
2022-10-26T00:49:41.232Z,4.68
2022-10-26T00:52:16.322Z,3.53
2022-10-26T00:54:44.114Z,4.07
2022-10-26T00:57:19.408Z,4.65
2022-10-26T00:59:47.050Z,4.45
2022-10-26T01:04:48.212Z,4.05
2022-10-26T01:07:15.528Z,3.92
2022-10-26T01:09:49.355Z,3.10
2022-10-26T01:12:16.615Z,3.58
2022-10-26T01:14:43.961Z,4.28
2022-10-26T01:17:36.351Z,3.83
2022-10-26T01:20:22.047Z,4.95
2022-10-26T01:23:04.269Z,3.95
2022-10-26T01:25:38.051Z,3.35
2022-10-26T01:28:16.258Z,3.25
2022-10-26T01:33:22.244Z,3.63
2022-10-26T01:36:01.885Z,3.20
2022-10-26T01:38:50.308Z,3.28
2022-10-26T01:41:20.415Z,4.30
2022-10-26T01:43:58.385Z,3.80
2022-10-26T01:46:26.911Z,3.20
2022-10-26T01:48:56.206Z,3.38
2022-10-26T01:51:31.232Z,3.83
2022-10-26T01:53:58.877Z,3.50
2022-10-26T01:59:04.197Z,3.53
2022-10-26T02:01:51.296Z,3.70
2022-10-26T02:04:18.639Z,3.00
2022-10-26T02:07:01.361Z,3.63
2022-10-26T02:09:36.440Z,3.70
2022-10-26T02:12:13.266Z,3.20
2022-10-26T02:14:46.270Z,4.55
2022-10-26T02:17:36.289Z,3.75
2022-10-26T02:20:07.551Z,3.88
2022-10-26T02:22:46.421Z,3.55
2022-10-26T02:25:23.280Z,3.40
2022-10-26T02:27:59.418Z,4.18
2022-10-26T02:30:26.871Z,3.03
2022-10-26T02:32:55.720Z,3.45
2022-10-26T02:35:37.346Z,3.88
2022-10-26T02:38:13.178Z,4.22
2022-10-26T02:40:41.296Z,3.25
2022-10-26T02:43:18.228Z,3.42
2022-10-26T02:45:48.146Z,3.53
2022-10-26T02:48:15.936Z,3.85
2022-10-26T02:50:54.453Z,3.78
2022-10-26T02:53:26.631Z,3.38
2022-10-26T02:55:53.759Z,3.47
2022-10-26T02:58:32.333Z,3.63
2022-10-26T03:01:00.166Z,3.42
2022-10-26T03:03:34.352Z,3.28
2022-10-26T03:06:01.595Z,4.38
2022-10-26T03:08:35.393Z,3.63
2022-10-26T03:11:02.505Z,2.83
2022-10-26T03:13:29.670Z,3.33
2022-10-26T03:16:04.260Z,3.53
2022-10-26T03:18:31.451Z,2.80
2022-10-26T03:20:58.612Z,3.47
2022-10-26T03:23:46.261Z,3.05
2022-10-26T03:26:13.353Z,3.53
2022-10-26T03:28:47.360Z,3.42
2022-10-26T03:31:14.463Z,2.95
2022-10-26T03:33:41.714Z,3.63
2022-10-26T03:36:16.259Z,3.08
2022-10-26T03:38:43.454Z,3.22
2022-10-26T03:41:17.328Z,3.17
2022-10-26T03:43:44.554Z,3.63
2022-10-26T03:46:11.676Z,3.30
2022-10-26T03:48:45.265Z,3.58
2022-10-26T03:51:12.533Z,3.75
2022-10-26T03:53:46.427Z,3.00
2022-10-26T03:56:13.611Z,3.45
2022-10-26T03:58:40.703Z,3.38
2022-10-26T04:01:14.317Z,3.67
2022-10-26T04:03:41.986Z,3.10
2022-10-26T04:06:15.320Z,3.40
2022-10-26T04:08:42.511Z,3.88
2022-10-26T04:11:09.623Z,3.70
2022-10-26T04:13:43.280Z,3.45
2022-10-26T04:16:10.471Z,3.90
2022-10-26T04:18:44.542Z,3.60
2022-10-26T04:21:11.737Z,4.15
2022-10-26T04:23:58.548Z,3.30
2022-10-26T04:26:25.744Z,3.28
2022-10-26T04:28:52.856Z,3.30
2022-10-26T04:31:26.434Z,4.05
2022-10-26T04:33:53.600Z,3.55
2022-10-26T04:36:20.841Z,4.43
2022-10-26T04:38:56.387Z,4.03
2022-10-26T04:41:23.631Z,4.30
2022-10-26T04:43:57.454Z,4.03
2022-10-26T04:46:24.621Z,3.30
2022-10-26T04:48:51.710Z,3.35
2022-10-26T04:51:25.290Z,3.78
2022-10-26T04:53:54.219Z,3.85
2022-10-26T04:56:28.350Z,2.78
2022-10-26T04:58:55.745Z,3.30
2022-10-26T05:01:23.358Z,3.15
2022-10-26T05:03:57.275Z,3.47
2022-10-26T05:06:24.504Z,3.55
2022-10-26T05:08:58.315Z,3.58
2022-10-26T05:11:25.488Z,3.03
2022-10-26T05:13:52.620Z,3.47
2022-10-26T05:16:26.302Z,4.10
2022-10-26T05:18:53.463Z,2.97
2022-10-26T05:21:27.332Z,3.58
2022-10-26T05:24:14.218Z,2.90
2022-10-26T05:26:48.312Z,2.88
2022-10-26T05:29:15.475Z,2.92
2022-10-26T05:31:49.721Z,3.15
2022-10-26T05:34:16.899Z,2.75
2022-10-26T05:36:44.170Z,3.72
2022-10-26T05:39:18.397Z,3.72
2022-10-26T05:41:45.572Z,4.43
2022-10-26T05:44:19.553Z,4.18
2022-10-26T05:46:47.549Z,3.22
2022-10-26T05:49:15.739Z,3.33
2022-10-26T05:51:49.312Z,4.25
2022-10-26T05:54:16.563Z,2.50
2022-10-26T05:56:50.503Z,3.97
2022-10-26T05:59:17.877Z,3.88
2022-10-26T06:01:45.111Z,3.35
2022-10-26T06:04:38.348Z,3.33
2022-10-26T06:07:10.512Z,3.60
2022-10-26T06:09:44.424Z,3.60
2022-10-26T06:12:13.549Z,3.60
2022-10-26T06:14:43.168Z,4.75
2022-10-26T06:20:02.281Z,2.85
2022-10-26T06:22:45.342Z,3.63
2022-10-26T06:25:32.307Z,3.53
2022-10-26T06:28:12.339Z,3.33
2022-10-26T06:30:40.768Z,3.60
2022-10-26T06:33:29.055Z,3.20
2022-10-26T06:38:30.356Z,3.78
2022-10-26T06:41:04.460Z,3.17
2022-10-26T06:43:39.345Z,4.00
2022-10-26T06:46:06.595Z,3.58
2022-10-26T06:48:59.464Z,3.97
2022-10-26T06:51:28.234Z,3.35
2022-10-26T06:53:55.316Z,3.20
2022-10-26T06:56:30.464Z,3.35
2022-10-26T06:59:03.461Z,3.53
2022-10-26T07:01:40.419Z,3.38
2022-10-26T07:04:07.695Z,3.42
2022-10-26T07:06:41.369Z,3.92
2022-10-26T07:09:15.328Z,2.88
2022-10-26T07:11:49.448Z,3.10
2022-10-26T07:14:16.721Z,2.60
2022-10-26T07:16:43.851Z,3.05
2022-10-26T07:19:17.447Z,4.13
2022-10-26T07:21:44.704Z,2.60
2022-10-26T07:24:31.370Z,3.72
2022-10-26T07:26:59.343Z,2.95
2022-10-26T07:29:27.382Z,2.47
2022-10-26T07:32:01.442Z,2.70
2022-10-26T07:34:28.670Z,2.80
2022-10-26T07:37:02.410Z,3.03
2022-10-26T07:39:32.674Z,2.63
2022-10-26T07:41:59.892Z,2.63
2022-10-26T07:44:33.338Z,3.47
2022-10-26T07:47:00.785Z,2.50
2022-10-26T07:49:34.480Z,3.38
2022-10-26T07:52:01.918Z,3.28
2022-10-26T07:54:29.009Z,3.22
2022-10-26T07:57:02.536Z,2.67
2022-10-26T07:59:30.107Z,2.90
2022-10-26T08:02:03.453Z,2.35
2022-10-26T08:04:30.679Z,2.92
2022-10-26T08:07:04.436Z,2.28
2022-10-26T08:09:31.538Z,2.95
2022-10-26T08:11:59.012Z,3.03
2022-10-26T08:14:32.316Z,2.05
2022-10-26T08:16:59.570Z,2.50
2022-10-26T08:19:33.431Z,2.40
2022-10-26T08:22:00.710Z,2.30
2022-10-26T08:24:34.361Z,2.13
2022-10-26T08:27:08.226Z,2.80
2022-10-26T08:29:42.487Z,2.25
2022-10-26T08:32:09.695Z,2.70
2022-10-26T08:34:36.875Z,2.35
2022-10-26T08:37:10.375Z,2.30
2022-10-26T08:39:37.870Z,2.00
2022-10-26T08:42:14.452Z,2.28
2022-10-26T08:44:44.949Z,2.30
2022-10-26T08:47:12.098Z,2.45
2022-10-26T08:49:49.435Z,2.08
2022-10-26T08:52:25.309Z,2.05
2022-10-26T08:54:53.872Z,1.92
2022-10-26T08:57:35.285Z,2.30
2022-10-26T09:00:07.288Z,2.50
2022-10-26T09:02:41.391Z,2.50
2022-10-26T09:05:19.379Z,2.03
2022-10-26T09:07:56.290Z,2.20
2022-10-26T09:10:34.687Z,1.90
2022-10-26T09:13:40.304Z,2.20
2022-10-26T09:16:16.283Z,2.30
2022-10-26T09:19:03.027Z,1.90
2022-10-26T09:21:59.691Z,2.00
2022-10-26T09:24:38.304Z,1.92
2022-10-26T09:27:30.515Z,1.75
2022-10-26T09:30:05.286Z,1.40
2022-10-26T09:32:37.714Z,1.75
2022-10-26T09:35:23.358Z,2.47
2022-10-26T09:38:04.865Z,1.45
2022-10-26T09:40:44.318Z,1.98
2022-10-26T09:43:13.410Z,1.88
2022-10-26T09:45:50.375Z,1.60
2022-10-26T09:48:20.870Z,2.22
2022-10-26T09:50:49.474Z,1.67
2022-10-26T09:53:23.392Z,1.73
2022-10-26T09:55:51.378Z,1.50
2022-10-26T09:58:28.617Z,2.10
2022-10-26T10:00:55.870Z,2.03
2022-10-26T10:03:33.464Z,1.58
2022-10-26T10:06:17.131Z,1.90
2022-10-26T10:08:53.508Z,1.70
2022-10-26T10:11:20.774Z,1.73
2022-10-26T10:13:54.390Z,2.03
2022-10-26T10:16:21.601Z,1.73
2022-10-26T10:19:03.457Z,1.95
2022-10-26T10:22:02.318Z,1.90
2022-10-26T10:24:37.556Z,1.90
2022-10-26T10:27:17.284Z,2.25
2022-10-26T10:29:52.446Z,1.58
2022-10-26T10:32:35.805Z,2.78
2022-10-26T10:35:29.505Z,1.80
2022-10-26T10:37:56.760Z,1.98
2022-10-26T10:40:25.217Z,1.98
2022-10-26T10:43:00.514Z,1.50
2022-10-26T10:45:29.330Z,2.53
2022-10-26T10:48:06.451Z,1.98
2022-10-26T10:50:34.947Z,2.65
2022-10-26T10:53:21.493Z,2.08
2022-10-26T10:55:57.225Z,1.92
2022-10-26T10:58:37.452Z,2.00
2022-10-26T11:01:04.797Z,2.30
2022-10-26T11:03:41.520Z,2.22
2022-10-26T11:06:19.703Z,2.22
2022-10-26T11:11:26.554Z,1.95
2022-10-26T11:14:03.419Z,2.00
2022-10-26T11:16:34.119Z,1.73
2022-10-26T11:19:26.549Z,2.30
2022-10-26T11:21:54.994Z,1.92
2022-10-26T11:24:31.421Z,1.73
2022-10-26T11:27:11.399Z,2.63
2022-10-26T11:30:08.529Z,2.30
2022-10-26T11:32:38.785Z,2.75
2022-10-26T11:35:19.500Z,2.00
2022-10-26T11:37:52.597Z,1.90
2022-10-26T11:40:36.476Z,1.70
2022-10-26T11:43:13.222Z,2.75
2022-10-26T11:45:52.480Z,1.67
2022-10-26T11:48:19.661Z,1.75
2022-10-26T11:50:56.658Z,1.55
2022-10-26T11:53:53.340Z,1.98
2022-10-26T11:56:34.441Z,1.90
2022-10-26T12:01:41.518Z,1.88
2022-10-26T12:04:08.863Z,1.67
2022-10-26T12:06:36.286Z,1.77
2022-10-26T12:09:20.463Z,2.10
2022-10-26T12:11:47.607Z,1.90
2022-10-26T12:14:24.474Z,1.70
2022-10-26T12:17:27.146Z,1.88
2022-10-26T12:20:19.497Z,2.00
2022-10-26T12:22:46.886Z,2.00
2022-10-26T12:25:28.468Z,1.92
2022-10-26T12:27:58.238Z,1.88
2022-10-26T12:30:43.433Z,1.75
2022-10-26T12:33:29.365Z,2.13
2022-10-26T12:36:03.478Z,1.70
2022-10-26T12:38:33.959Z,1.67
2022-10-26T12:41:14.444Z,1.75
2022-10-26T12:43:42.273Z,2.00
2022-10-26T12:46:21.550Z,1.23
2022-10-26T12:48:49.816Z,1.50
2022-10-26T12:51:29.449Z,1.77
2022-10-26T12:54:05.685Z,1.00
2022-10-26T12:56:42.575Z,1.38
2022-10-26T12:59:19.447Z,1.50
2022-10-26T13:02:00.646Z,1.58
2022-10-26T13:04:46.188Z,1.20
2022-10-26T13:07:24.666Z,1.85
2022-10-26T13:09:57.891Z,1.90
2022-10-26T13:12:32.496Z,1.60
2022-10-26T13:15:07.300Z,1.83
2022-10-26T13:17:41.619Z,1.80
2022-10-26T13:20:18.560Z,1.70
2022-10-26T13:22:54.825Z,1.70
2022-10-26T13:25:30.515Z,1.63
2022-10-26T13:28:05.660Z,1.80
2022-10-26T13:30:38.563Z,1.35
2022-10-26T13:33:15.700Z,1.92
2022-10-26T13:35:43.993Z,1.77
2022-10-26T13:38:12.643Z,1.48
2022-10-26T13:40:46.472Z,1.70
2022-10-26T13:43:21.794Z,2.25
2022-10-26T13:46:00.503Z,1.60
2022-10-26T13:48:37.328Z,2.17
2022-10-26T13:51:17.487Z,2.45
2022-10-26T13:53:51.100Z,2.05
2022-10-26T13:56:29.458Z,1.40
2022-10-26T13:59:03.005Z,1.95
2022-10-26T14:01:37.661Z,2.00
2022-10-26T14:04:23.509Z,1.70
2022-10-26T14:06:57.642Z,1.92
2022-10-26T14:09:24.907Z,1.90
2022-10-26T14:12:02.475Z,1.58
2022-10-26T14:14:31.674Z,1.63
2022-10-26T14:17:05.841Z,2.15
2022-10-26T14:19:37.465Z,1.70
2022-10-26T14:22:05.076Z,1.95
2022-10-26T14:27:23.280Z,1.77
2022-10-26T14:30:20.888Z,1.73
2022-10-26T14:32:52.664Z,1.73
2022-10-26T14:35:22.499Z,1.75
2022-10-26T14:38:07.406Z,2.28
2022-10-26T14:40:35.958Z,2.10
2022-10-26T14:43:11.399Z,1.80
2022-10-26T14:45:55.121Z,2.03
2022-10-26T14:48:31.405Z,1.83
2022-10-26T14:51:07.897Z,2.10
2022-10-26T14:53:43.529Z,2.33
2022-10-26T14:56:29.785Z,1.77
2022-10-26T14:59:04.592Z,2.53
2022-10-26T15:01:35.743Z,2.42
2022-10-26T15:04:14.542Z,2.17
2022-10-26T15:06:43.697Z,1.92
2022-10-26T15:09:36.451Z,2.22
2022-10-26T15:12:05.057Z,2.40
2022-10-26T15:14:32.510Z,2.00
2022-10-26T15:17:06.522Z,2.35
2022-10-26T15:19:33.827Z,2.17
2022-10-26T15:22:07.489Z,2.15
2022-10-26T15:24:38.796Z,2.15
2022-10-26T15:27:27.492Z,2.10
2022-10-26T15:30:10.143Z,2.35
2022-10-26T15:32:43.524Z,2.40
2022-10-26T15:35:19.699Z,2.88
2022-10-26T15:37:53.518Z,2.50
2022-10-26T15:40:20.940Z,2.42
2022-10-26T23:15:50.668Z,18.15
2022-10-26T23:18:31.867Z,18.02
2022-10-26T23:21:05.767Z,19.15
2022-10-26T23:23:32.992Z,19.15
2022-10-26T23:26:03.839Z,19.98
2022-10-26T23:28:37.737Z,17.75
2022-10-26T23:31:05.401Z,18.20
2022-10-26T23:33:39.679Z,18.52
2022-10-26T23:36:06.923Z,18.30
2022-10-26T23:38:40.687Z,18.75
2022-10-26T23:41:10.765Z,17.95
2022-10-26T23:43:40.251Z,17.13
2022-10-26T23:46:14.693Z,15.90
2022-10-26T23:48:42.234Z,18.48
2022-10-26T23:51:15.698Z,17.88
2022-10-26T23:53:42.910Z,19.25
2022-10-26T23:56:16.835Z,18.80
2022-10-26T23:58:43.924Z,20.90
